sensor_id;sensor_type;location;lat;lon;timestamp;temperature;humidity
9640;DHT22;51745;50.872;4.732;2023-03-20T00:00:21;4.80;99.90
9640;DHT22;51745;50.872;4.732;2023-03-20T00:03:12;4.80;99.90
9640;DHT22;51745;50.872;4.732;2023-03-20T00:05:59;4.70;99.90
9640;DHT22;51745;50.872;4.732;2023-03-20T00:08:48;4.70;99.90
9640;DHT22;51745;50.872;4.732;2023-03-20T00:11:39;4.70;99.90
9640;DHT22;51745;50.872;4.732;2023-03-20T00:14:27;4.60;99.90
9640;DHT22;51745;50.872;4.732;2023-03-20T00:17:16;4.50;99.90
9640;DHT22;51745;50.872;4.732;2023-03-20T00:20:12;4.50;99.90
9640;DHT22;51745;50.872;4.732;2023-03-20T00:23:00;4.50;99.90
9640;DHT22;51745;50.872;4.732;2023-03-20T00:25:49;4.40;99.90
9640;DHT22;51745;50.872;4.732;2023-03-20T00:28:38;4.30;99.90
9640;DHT22;51745;50.872;4.732;2023-03-20T00:31:28;4.30;99.90
9640;DHT22;51745;50.872;4.732;2023-03-20T00:34:17;4.20;99.90
9640;DHT22;51745;50.872;4.732;2023-03-20T00:37:07;4.20;99.90
9640;DHT22;51745;50.872;4.732;2023-03-20T00:39:55;4.10;99.90
9640;DHT22;51745;50.872;4.732;2023-03-20T00:42:43;4.10;99.90
9640;DHT22;51745;50.872;4.732;2023-03-20T00:45:33;4.10;99.90
9640;DHT22;51745;50.872;4.732;2023-03-20T00:48:22;4.10;99.90
9640;DHT22;51745;50.872;4.732;2023-03-20T00:51:09;4.10;99.90
9640;DHT22;51745;50.872;4.732;2023-03-20T00:53:59;4.10;99.90
9640;DHT22;51745;50.872;4.732;2023-03-20T00:56:50;4.30;99.90
9640;DHT22;51745;50.872;4.732;2023-03-20T00:59:38;4.10;99.90
9640;DHT22;51745;50.872;4.732;2023-03-20T01:02:27;4.00;99.90
9640;DHT22;51745;50.872;4.732;2023-03-20T01:05:17;4.10;99.90
9640;DHT22;51745;50.872;4.732;2023-03-20T01:08:09;4.20;99.90
9640;DHT22;51745;50.872;4.732;2023-03-20T01:11:00;4.30;99.90
9640;DHT22;51745;50.872;4.732;2023-03-20T01:13:48;4.30;99.90
9640;DHT22;51745;50.872;4.732;2023-03-20T01:16:37;4.00;99.90
9640;DHT22;51745;50.872;4.732;2023-03-20T01:19:28;4.30;99.90
9640;DHT22;51745;50.872;4.732;2023-03-20T01:22:17;4.10;99.90
9640;DHT22;51745;50.872;4.732;2023-03-20T01:25:05;4.20;99.90
9640;DHT22;51745;50.872;4.732;2023-03-20T01:27:55;4.20;99.90
9640;DHT22;51745;50.872;4.732;2023-03-20T01:33:35;4.30;99.90
9640;DHT22;51745;50.872;4.732;2023-03-20T01:36:23;4.30;99.90
9640;DHT22;51745;50.872;4.732;2023-03-20T01:39:12;3.90;99.90
9640;DHT22;51745;50.872;4.732;2023-03-20T01:41:59;4.20;99.90
9640;DHT22;51745;50.872;4.732;2023-03-20T01:44:50;4.60;99.90
9640;DHT22;51745;50.872;4.732;2023-03-20T01:47:38;4.70;99.90
9640;DHT22;51745;50.872;4.732;2023-03-20T01:50:29;4.80;99.90
9640;DHT22;51745;50.872;4.732;2023-03-20T01:53:27;4.80;99.90
9640;DHT22;51745;50.872;4.732;2023-03-20T01:56:19;3.80;99.90
9640;DHT22;51745;50.872;4.732;2023-03-20T01:59:09;5.00;99.90
9640;DHT22;51745;50.872;4.732;2023-03-20T02:02:00;5.20;99.90
9640;DHT22;51745;50.872;4.732;2023-03-20T02:04:49;5.20;99.90
9640;DHT22;51745;50.872;4.732;2023-03-20T02:07:39;5.00;99.90
9640;DHT22;51745;50.872;4.732;2023-03-20T02:10:28;5.00;99.90
9640;DHT22;51745;50.872;4.732;2023-03-20T02:13:31;5.30;99.90
9640;DHT22;51745;50.872;4.732;2023-03-20T02:16:20;5.20;99.90
9640;DHT22;51745;50.872;4.732;2023-03-20T02:19:25;5.30;99.90
9640;DHT22;51745;50.872;4.732;2023-03-20T02:22:23;5.80;99.90
9640;DHT22;51745;50.872;4.732;2023-03-20T02:25:25;6.00;99.90
9640;DHT22;51745;50.872;4.732;2023-03-20T02:28:36;5.40;99.90
9640;DHT22;51745;50.872;4.732;2023-03-20T02:31:41;5.70;99.90
9640;DHT22;51745;50.872;4.732;2023-03-20T02:35:00;6.10;99.90
9640;DHT22;51745;50.872;4.732;2023-03-20T02:43:50;5.50;99.90
9640;DHT22;51745;50.872;4.732;2023-03-20T02:46:42;5.50;99.90
9640;DHT22;51745;50.872;4.732;2023-03-20T02:52:45;5.30;99.90
9640;DHT22;51745;50.872;4.732;2023-03-20T02:55:37;5.30;99.90
9640;DHT22;51745;50.872;4.732;2023-03-20T02:58:28;5.20;99.90
9640;DHT22;51745;50.872;4.732;2023-03-20T03:01:20;5.20;99.90
9640;DHT22;51745;50.872;4.732;2023-03-20T03:04:10;5.40;99.90
9640;DHT22;51745;50.872;4.732;2023-03-20T03:06:59;5.10;99.90
9640;DHT22;51745;50.872;4.732;2023-03-20T03:09:52;5.00;99.90
9640;DHT22;51745;50.872;4.732;2023-03-20T03:12:43;4.90;99.90
9640;DHT22;51745;50.872;4.732;2023-03-20T03:15:33;5.30;99.90
9640;DHT22;51745;50.872;4.732;2023-03-20T03:18:24;5.10;99.90
9640;DHT22;51745;50.872;4.732;2023-03-20T03:21:12;4.70;99.90
9640;DHT22;51745;50.872;4.732;2023-03-20T03:24:04;4.80;99.90
9640;DHT22;51745;50.872;4.732;2023-03-20T03:26:52;5.20;99.90
9640;DHT22;51745;50.872;4.732;2023-03-20T03:29:40;4.80;99.90
9640;DHT22;51745;50.872;4.732;2023-03-20T03:32:29;4.70;99.90
9640;DHT22;51745;50.872;4.732;2023-03-20T03:35:22;4.80;99.90
9640;DHT22;51745;50.872;4.732;2023-03-20T03:38:16;4.80;99.90
9640;DHT22;51745;50.872;4.732;2023-03-20T03:41:11;4.90;99.90
9640;DHT22;51745;50.872;4.732;2023-03-20T03:44:05;5.00;99.90
9640;DHT22;51745;50.872;4.732;2023-03-20T03:46:56;6.40;99.90
9640;DHT22;51745;50.872;4.732;2023-03-20T03:49:47;5.00;99.90
9640;DHT22;51745;50.872;4.732;2023-03-20T03:52:39;5.00;99.90
9640;DHT22;51745;50.872;4.732;2023-03-20T03:55:28;4.90;99.90
9640;DHT22;51745;50.872;4.732;2023-03-20T03:58:22;4.70;99.90
9640;DHT22;51745;50.872;4.732;2023-03-20T04:01:15;4.80;99.90
9640;DHT22;51745;50.872;4.732;2023-03-20T04:04:07;5.00;99.90
9640;DHT22;51745;50.872;4.732;2023-03-20T04:06:56;4.80;99.90
9640;DHT22;51745;50.872;4.732;2023-03-20T04:09:47;5.10;99.90
9640;DHT22;51745;50.872;4.732;2023-03-20T04:12:36;5.40;99.90
9640;DHT22;51745;50.872;4.732;2023-03-20T04:15:27;4.90;99.90
9640;DHT22;51745;50.872;4.732;2023-03-20T04:18:16;5.00;99.90
9640;DHT22;51745;50.872;4.732;2023-03-20T04:21:05;5.00;99.90
9640;DHT22;51745;50.872;4.732;2023-03-20T04:23:53;4.70;99.90
9640;DHT22;51745;50.872;4.732;2023-03-20T04:26:43;4.30;99.90
9640;DHT22;51745;50.872;4.732;2023-03-20T04:29:31;4.90;99.90
9640;DHT22;51745;50.872;4.732;2023-03-20T04:32:39;4.70;99.90
9640;DHT22;51745;50.872;4.732;2023-03-20T04:35:33;5.00;99.90
9640;DHT22;51745;50.872;4.732;2023-03-20T04:38:28;4.50;99.90
9640;DHT22;51745;50.872;4.732;2023-03-20T04:41:18;5.30;99.90
9640;DHT22;51745;50.872;4.732;2023-03-20T04:44:13;5.20;99.90
9640;DHT22;51745;50.872;4.732;2023-03-20T04:47:03;5.20;99.90
9640;DHT22;51745;50.872;4.732;2023-03-20T04:49:53;5.50;99.90
9640;DHT22;51745;50.872;4.732;2023-03-20T04:52:40;4.60;99.90
9640;DHT22;51745;50.872;4.732;2023-03-20T04:55:29;4.10;99.90
9640;DHT22;51745;50.872;4.732;2023-03-20T04:58:17;5.70;99.90
9640;DHT22;51745;50.872;4.732;2023-03-20T05:01:07;5.00;99.90
9640;DHT22;51745;50.872;4.732;2023-03-20T05:03:54;6.40;99.90
9640;DHT22;51745;50.872;4.732;2023-03-20T05:06:49;4.60;99.90
9640;DHT22;51745;50.872;4.732;2023-03-20T05:09:39;5.10;99.90
9640;DHT22;51745;50.872;4.732;2023-03-20T05:12:27;5.20;99.90
9640;DHT22;51745;50.872;4.732;2023-03-20T05:15:26;5.00;99.90
9640;DHT22;51745;50.872;4.732;2023-03-20T05:18:45;3.40;99.90
9640;DHT22;51745;50.872;4.732;2023-03-20T05:21:51;5.40;99.90
9640;DHT22;51745;50.872;4.732;2023-03-20T05:24:59;5.30;99.90
9640;DHT22;51745;50.872;4.732;2023-03-20T05:28:25;5.50;99.90
9640;DHT22;51745;50.872;4.732;2023-03-20T05:31:34;5.50;99.90
9640;DHT22;51745;50.872;4.732;2023-03-20T05:34:34;5.30;99.90
9640;DHT22;51745;50.872;4.732;2023-03-20T05:37:28;5.80;99.90
9640;DHT22;51745;50.872;4.732;2023-03-20T05:40:27;5.70;99.90
9640;DHT22;51745;50.872;4.732;2023-03-20T05:43:34;5.80;99.90
9640;DHT22;51745;50.872;4.732;2023-03-20T05:46:41;5.90;99.90
9640;DHT22;51745;50.872;4.732;2023-03-20T05:50:03;5.90;99.90
9640;DHT22;51745;50.872;4.732;2023-03-20T05:53:04;5.80;99.90
9640;DHT22;51745;50.872;4.732;2023-03-20T05:56:08;4.80;99.90
9640;DHT22;51745;50.872;4.732;2023-03-20T05:59:16;5.70;99.90
9640;DHT22;51745;50.872;4.732;2023-03-20T06:02:22;5.50;99.90
9640;DHT22;51745;50.872;4.732;2023-03-20T06:05:20;5.60;99.90
9640;DHT22;51745;50.872;4.732;2023-03-20T06:08:10;5.50;99.90
9640;DHT22;51745;50.872;4.732;2023-03-20T06:10:57;6.00;99.90
9640;DHT22;51745;50.872;4.732;2023-03-20T06:13:51;5.60;99.90
9640;DHT22;51745;50.872;4.732;2023-03-20T06:16:44;5.40;99.90
9640;DHT22;51745;50.872;4.732;2023-03-20T06:19:34;5.70;99.90
9640;DHT22;51745;50.872;4.732;2023-03-20T06:22:25;6.00;99.90
9640;DHT22;51745;50.872;4.732;2023-03-20T06:25:13;5.00;99.90
9640;DHT22;51745;50.872;4.732;2023-03-20T06:28:03;5.80;99.90
9640;DHT22;51745;50.872;4.732;2023-03-20T06:51:13;8.60;99.90
9640;DHT22;51745;50.872;4.732;2023-03-20T06:54:10;6.30;99.90
9640;DHT22;51745;50.872;4.732;2023-03-20T06:57:01;6.40;99.90
9640;DHT22;51745;50.872;4.732;2023-03-20T06:59:48;6.30;99.90
9640;DHT22;51745;50.872;4.732;2023-03-20T07:02:36;6.40;99.90
9640;DHT22;51745;50.872;4.732;2023-03-20T07:05:35;6.40;99.90
9640;DHT22;51745;50.872;4.732;2023-03-20T07:08:33;6.50;99.90
9640;DHT22;51745;50.872;4.732;2023-03-20T07:11:30;6.70;99.90
9640;DHT22;51745;50.872;4.732;2023-03-20T07:14:23;6.50;99.90
9640;DHT22;51745;50.872;4.732;2023-03-20T07:17:15;4.30;99.90
9640;DHT22;51745;50.872;4.732;2023-03-20T07:20:04;6.60;99.90
9640;DHT22;51745;50.872;4.732;2023-03-20T07:22:55;6.60;99.90
9640;DHT22;51745;50.872;4.732;2023-03-20T07:25:46;6.70;99.90
9640;DHT22;51745;50.872;4.732;2023-03-20T07:28:37;6.90;99.90
9640;DHT22;51745;50.872;4.732;2023-03-20T07:31:33;9.50;99.90
9640;DHT22;51745;50.872;4.732;2023-03-20T07:34:31;6.80;99.90
9640;DHT22;51745;50.872;4.732;2023-03-20T07:37:19;4.50;99.90
9640;DHT22;51745;50.872;4.732;2023-03-20T07:40:19;7.20;99.90
9640;DHT22;51745;50.872;4.732;2023-03-20T07:43:18;7.00;99.90
9640;DHT22;51745;50.872;4.732;2023-03-20T07:46:17;7.20;99.90
9640;DHT22;51745;50.872;4.732;2023-03-20T07:49:05;7.20;99.90
9640;DHT22;51745;50.872;4.732;2023-03-20T07:51:53;7.30;99.90
9640;DHT22;51745;50.872;4.732;2023-03-20T07:54:42;7.00;99.90
9640;DHT22;51745;50.872;4.732;2023-03-20T07:57:30;7.20;99.90
9640;DHT22;51745;50.872;4.732;2023-03-20T08:00:21;7.30;99.90
9640;DHT22;51745;50.872;4.732;2023-03-20T08:03:14;7.40;99.90
9640;DHT22;51745;50.872;4.732;2023-03-20T08:06:13;7.90;99.90
9640;DHT22;51745;50.872;4.732;2023-03-20T08:09:07;7.80;99.90
9640;DHT22;51745;50.872;4.732;2023-03-20T08:11:55;7.70;99.90
9640;DHT22;51745;50.872;4.732;2023-03-20T08:14:43;10.50;99.90
9640;DHT22;51745;50.872;4.732;2023-03-20T08:17:33;8.40;99.90
9640;DHT22;51745;50.872;4.732;2023-03-20T08:20:23;6.60;99.90
9640;DHT22;51745;50.872;4.732;2023-03-20T08:23:11;7.80;99.90
9640;DHT22;51745;50.872;4.732;2023-03-20T08:26:01;7.80;99.90
9640;DHT22;51745;50.872;4.732;2023-03-20T08:28:52;7.90;99.90
9640;DHT22;51745;50.872;4.732;2023-03-20T08:31:40;7.70;99.90
9640;DHT22;51745;50.872;4.732;2023-03-20T08:34:29;7.60;99.90
9640;DHT22;51745;50.872;4.732;2023-03-20T08:37:17;7.60;99.90
9640;DHT22;51745;50.872;4.732;2023-03-20T08:40:05;7.60;99.90
9640;DHT22;51745;50.872;4.732;2023-03-20T08:42:53;7.50;99.90
9640;DHT22;51745;50.872;4.732;2023-03-20T08:45:41;7.80;99.90
9640;DHT22;51745;50.872;4.732;2023-03-20T08:48:29;7.40;99.90
9640;DHT22;51745;50.872;4.732;2023-03-20T08:51:18;7.30;99.90
9640;DHT22;51745;50.872;4.732;2023-03-20T08:54:06;7.30;99.90
9640;DHT22;51745;50.872;4.732;2023-03-20T08:56:54;7.30;99.90
9640;DHT22;51745;50.872;4.732;2023-03-20T08:59:47;6.10;99.90
9640;DHT22;51745;50.872;4.732;2023-03-20T09:02:38;7.30;99.90
9640;DHT22;51745;50.872;4.732;2023-03-20T09:05:26;7.20;99.90
9640;DHT22;51745;50.872;4.732;2023-03-20T09:08:16;7.30;99.90
9640;DHT22;51745;50.872;4.732;2023-03-20T09:11:05;7.80;99.90
9640;DHT22;51745;50.872;4.732;2023-03-20T09:13:53;8.30;99.90
9640;DHT22;51745;50.872;4.732;2023-03-20T09:16:41;7.20;99.90
9640;DHT22;51745;50.872;4.732;2023-03-20T09:19:29;7.30;99.90
9640;DHT22;51745;50.872;4.732;2023-03-20T09:22:17;7.40;99.90
9640;DHT22;51745;50.872;4.732;2023-03-20T09:25:06;7.50;99.90
9640;DHT22;51745;50.872;4.732;2023-03-20T09:27:57;9.10;99.90
9640;DHT22;51745;50.872;4.732;2023-03-20T09:30:47;7.70;99.90
9640;DHT22;51745;50.872;4.732;2023-03-20T09:33:35;7.80;99.90
9640;DHT22;51745;50.872;4.732;2023-03-20T09:36:23;7.80;99.90
9640;DHT22;51745;50.872;4.732;2023-03-20T09:39:11;8.10;99.90
9640;DHT22;51745;50.872;4.732;2023-03-20T09:42:01;10.60;99.90
9640;DHT22;51745;50.872;4.732;2023-03-20T09:44:53;10.70;99.90
9640;DHT22;51745;50.872;4.732;2023-03-20T09:47:44;8.40;99.90
9640;DHT22;51745;50.872;4.732;2023-03-20T09:50:35;8.60;99.90
9640;DHT22;51745;50.872;4.732;2023-03-20T09:53:28;8.90;99.90
9640;DHT22;51745;50.872;4.732;2023-03-20T09:56:19;9.10;99.90
9640;DHT22;51745;50.872;4.732;2023-03-20T09:59:11;7.40;99.90
9640;DHT22;51745;50.872;4.732;2023-03-20T10:02:02;11.30;99.90
9640;DHT22;51745;50.872;4.732;2023-03-20T10:04:51;10.10;99.90
9640;DHT22;51745;50.872;4.732;2023-03-20T10:07:39;9.90;99.90
9640;DHT22;51745;50.872;4.732;2023-03-20T10:10:29;9.90;99.90
9640;DHT22;51745;50.872;4.732;2023-03-20T10:13:27;10.00;99.90
9640;DHT22;51745;50.872;4.732;2023-03-20T10:16:21;10.10;99.90
9640;DHT22;51745;50.872;4.732;2023-03-20T10:19:16;12.10;99.90
9640;DHT22;51745;50.872;4.732;2023-03-20T10:22:10;11.10;99.90
9640;DHT22;51745;50.872;4.732;2023-03-20T10:25:02;10.20;99.90
9640;DHT22;51745;50.872;4.732;2023-03-20T10:27:55;10.00;99.90
9640;DHT22;51745;50.872;4.732;2023-03-20T10:30:52;9.90;99.90
9640;DHT22;51745;50.872;4.732;2023-03-20T10:33:47;12.50;99.90
9640;DHT22;51745;50.872;4.732;2023-03-20T10:36:40;10.40;99.90
9640;DHT22;51745;50.872;4.732;2023-03-20T10:39:43;10.30;99.90
9640;DHT22;51745;50.872;4.732;2023-03-20T10:42:36;10.70;99.90
9640;DHT22;51745;50.872;4.732;2023-03-20T10:45:35;11.20;99.90
9640;DHT22;51745;50.872;4.732;2023-03-20T10:48:24;8.20;99.90
9640;DHT22;51745;50.872;4.732;2023-03-20T10:51:15;10.80;99.90
9640;DHT22;51745;50.872;4.732;2023-03-20T10:54:09;10.80;99.90
9640;DHT22;51745;50.872;4.732;2023-03-20T10:57:02;10.60;99.90
9640;DHT22;51745;50.872;4.732;2023-03-20T10:59:50;10.50;99.90
9640;DHT22;51745;50.872;4.732;2023-03-20T11:02:39;10.70;99.90
9640;DHT22;51745;50.872;4.732;2023-03-20T11:05:28;10.90;99.90
9640;DHT22;51745;50.872;4.732;2023-03-20T11:08:20;11.20;99.90
9640;DHT22;51745;50.872;4.732;2023-03-20T11:11:08;11.90;99.90
9640;DHT22;51745;50.872;4.732;2023-03-20T11:14:08;11.30;99.90
9640;DHT22;51745;50.872;4.732;2023-03-20T11:16:56;12.20;99.90
9640;DHT22;51745;50.872;4.732;2023-03-20T11:19:47;11.60;99.90
9640;DHT22;51745;50.872;4.732;2023-03-20T11:22:37;11.90;99.90
9640;DHT22;51745;50.872;4.732;2023-03-20T11:25:29;11.60;99.90
9640;DHT22;51745;50.872;4.732;2023-03-20T11:28:23;13.10;99.90
9640;DHT22;51745;50.872;4.732;2023-03-20T11:31:16;11.10;99.90
9640;DHT22;51745;50.872;4.732;2023-03-20T11:34:09;11.60;99.90
9640;DHT22;51745;50.872;4.732;2023-03-20T11:36:57;10.90;99.90
9640;DHT22;51745;50.872;4.732;2023-03-20T11:39:55;11.10;99.90
9640;DHT22;51745;50.872;4.732;2023-03-20T11:42:52;11.20;99.90
9640;DHT22;51745;50.872;4.732;2023-03-20T11:45:41;11.40;99.90
9640;DHT22;51745;50.872;4.732;2023-03-20T11:48:35;11.10;99.90
9640;DHT22;51745;50.872;4.732;2023-03-20T11:51:23;11.40;99.90
9640;DHT22;51745;50.872;4.732;2023-03-20T11:54:13;11.80;99.90
9640;DHT22;51745;50.872;4.732;2023-03-20T11:57:02;12.30;99.90
9640;DHT22;51745;50.872;4.732;2023-03-20T11:59:52;12.70;99.90
9640;DHT22;51745;50.872;4.732;2023-03-20T12:02:41;13.20;99.90
9640;DHT22;51745;50.872;4.732;2023-03-20T12:05:39;12.40;99.90
9640;DHT22;51745;50.872;4.732;2023-03-20T12:08:27;12.50;99.90
9640;DHT22;51745;50.872;4.732;2023-03-20T12:11:26;12.30;99.90
9640;DHT22;51745;50.872;4.732;2023-03-20T12:14:21;12.20;99.90
9640;DHT22;51745;50.872;4.732;2023-03-20T12:20:21;13.20;99.90
9640;DHT22;51745;50.872;4.732;2023-03-20T12:23:12;13.00;99.90
9640;DHT22;51745;50.872;4.732;2023-03-20T12:26:02;15.10;99.90
9640;DHT22;51745;50.872;4.732;2023-03-20T12:29:01;12.40;99.90
9640;DHT22;51745;50.872;4.732;2023-03-20T12:32:05;12.70;99.90
9640;DHT22;51745;50.872;4.732;2023-03-20T12:35:04;14.60;99.90
9640;DHT22;51745;50.872;4.732;2023-03-20T12:38:17;9.70;99.90
9640;DHT22;51745;50.872;4.732;2023-03-20T12:41:11;12.00;99.90
9640;DHT22;51745;50.872;4.732;2023-03-20T12:47:37;11.50;99.90
9640;DHT22;51745;50.872;4.732;2023-03-20T12:50:30;11.60;99.90
9640;DHT22;51745;50.872;4.732;2023-03-20T12:53:30;11.80;99.90
9640;DHT22;51745;50.872;4.732;2023-03-20T12:56:25;13.20;99.90
9640;DHT22;51745;50.872;4.732;2023-03-20T12:59:17;12.10;99.90
9640;DHT22;51745;50.872;4.732;2023-03-20T13:02:11;12.20;99.90
9640;DHT22;51745;50.872;4.732;2023-03-20T13:05:06;12.50;99.90
9640;DHT22;51745;50.872;4.732;2023-03-20T13:08:00;12.40;99.90
9640;DHT22;51745;50.872;4.732;2023-03-20T13:10:55;12.50;99.90
9640;DHT22;51745;50.872;4.732;2023-03-20T13:13:46;12.60;99.90
9640;DHT22;51745;50.872;4.732;2023-03-20T13:16:39;13.00;99.90
9640;DHT22;51745;50.872;4.732;2023-03-20T13:19:30;13.00;99.90
9640;DHT22;51745;50.872;4.732;2023-03-20T13:22:24;13.10;99.90
9640;DHT22;51745;50.872;4.732;2023-03-20T13:25:21;13.30;99.90
9640;DHT22;51745;50.872;4.732;2023-03-20T13:28:13;13.00;99.90
9640;DHT22;51745;50.872;4.732;2023-03-20T13:31:14;11.60;99.90
9640;DHT22;51745;50.872;4.732;2023-03-20T13:34:08;13.00;99.90
9640;DHT22;51745;50.872;4.732;2023-03-20T13:37:01;13.20;99.90
9640;DHT22;51745;50.872;4.732;2023-03-20T13:40:13;13.40;99.90
9640;DHT22;51745;50.872;4.732;2023-03-20T13:43:04;13.10;99.90
9640;DHT22;51745;50.872;4.732;2023-03-20T13:46:02;13.00;99.90
9640;DHT22;51745;50.872;4.732;2023-03-20T13:48:52;13.00;99.90
9640;DHT22;51745;50.872;4.732;2023-03-20T13:51:44;12.60;99.90
9640;DHT22;51745;50.872;4.732;2023-03-20T13:54:45;12.60;99.90
9640;DHT22;51745;50.872;4.732;2023-03-20T13:57:43;12.70;99.90
9640;DHT22;51745;50.872;4.732;2023-03-20T14:00:39;12.20;99.90
9640;DHT22;51745;50.872;4.732;2023-03-20T14:03:30;12.40;99.90
9640;DHT22;51745;50.872;4.732;2023-03-20T14:09:26;9.70;99.90
9640;DHT22;51745;50.872;4.732;2023-03-20T14:12:15;12.10;99.90
9640;DHT22;51745;50.872;4.732;2023-03-20T14:15:04;12.10;99.90
9640;DHT22;51745;50.872;4.732;2023-03-20T14:17:53;12.00;99.90
9640;DHT22;51745;50.872;4.732;2023-03-20T14:20:42;11.90;99.90
9640;DHT22;51745;50.872;4.732;2023-03-20T14:23:32;11.70;99.90
9640;DHT22;51745;50.872;4.732;2023-03-20T14:26:25;11.70;99.90
9640;DHT22;51745;50.872;4.732;2023-03-20T14:29:21;11.70;99.90
9640;DHT22;51745;50.872;4.732;2023-03-20T14:32:21;11.30;99.90
9640;DHT22;51745;50.872;4.732;2023-03-20T14:35:20;11.70;99.90
9640;DHT22;51745;50.872;4.732;2023-03-20T14:38:24;12.40;99.90
9640;DHT22;51745;50.872;4.732;2023-03-20T14:41:16;11.80;99.90
9640;DHT22;51745;50.872;4.732;2023-03-20T14:44:21;11.90;99.90
9640;DHT22;51745;50.872;4.732;2023-03-20T14:47:16;12.10;99.90
9640;DHT22;51745;50.872;4.732;2023-03-20T14:50:09;11.90;99.90
9640;DHT22;51745;50.872;4.732;2023-03-20T14:53:02;12.20;99.90
9640;DHT22;51745;50.872;4.732;2023-03-20T14:56:00;12.00;99.90
9640;DHT22;51745;50.872;4.732;2023-03-20T14:58:51;12.60;99.90
9640;DHT22;51745;50.872;4.732;2023-03-20T15:01:43;12.30;99.90
9640;DHT22;51745;50.872;4.732;2023-03-20T15:04:33;12.50;99.90
9640;DHT22;51745;50.872;4.732;2023-03-20T15:07:23;12.80;99.90
9640;DHT22;51745;50.872;4.732;2023-03-20T15:10:13;12.90;99.90
9640;DHT22;51745;50.872;4.732;2023-03-20T15:13:06;12.70;99.90
9640;DHT22;51745;50.872;4.732;2023-03-20T15:15:56;12.20;99.90
9640;DHT22;51745;50.872;4.732;2023-03-20T15:18:51;13.90;99.90
9640;DHT22;51745;50.872;4.732;2023-03-20T15:21:43;12.20;99.90
9640;DHT22;51745;50.872;4.732;2023-03-20T15:24:36;12.10;99.90
9640;DHT22;51745;50.872;4.732;2023-03-20T15:27:26;12.00;99.90
9640;DHT22;51745;50.872;4.732;2023-03-20T15:30:18;12.10;99.90
9640;DHT22;51745;50.872;4.732;2023-03-20T15:33:07;11.20;99.90
9640;DHT22;51745;50.872;4.732;2023-03-20T15:36:07;12.60;99.90
9640;DHT22;51745;50.872;4.732;2023-03-20T15:39:09;12.00;99.90
9640;DHT22;51745;50.872;4.732;2023-03-20T15:42:00;12.00;99.90
9640;DHT22;51745;50.872;4.732;2023-03-20T15:44:51;12.40;99.90
9640;DHT22;51745;50.872;4.732;2023-03-20T15:47:42;12.10;99.90
9640;DHT22;51745;50.872;4.732;2023-03-20T15:50:30;12.10;99.90
9640;DHT22;51745;50.872;4.732;2023-03-20T15:53:21;12.10;99.90
9640;DHT22;51745;50.872;4.732;2023-03-20T15:56:11;12.00;99.90
9640;DHT22;51745;50.872;4.732;2023-03-20T15:59:05;12.00;99.90
9640;DHT22;51745;50.872;4.732;2023-03-20T16:01:54;11.80;99.90
9640;DHT22;51745;50.872;4.732;2023-03-20T16:04:45;11.60;99.90
9640;DHT22;51745;50.872;4.732;2023-03-20T16:07:35;11.60;99.90
9640;DHT22;51745;50.872;4.732;2023-03-20T16:10:26;11.40;99.90
9640;DHT22;51745;50.872;4.732;2023-03-20T16:13:15;12.40;99.90
9640;DHT22;51745;50.872;4.732;2023-03-20T16:16:03;11.30;99.90
9640;DHT22;51745;50.872;4.732;2023-03-20T16:18:52;11.50;99.90
9640;DHT22;51745;50.872;4.732;2023-03-20T16:21:47;11.70;99.90
9640;DHT22;51745;50.872;4.732;2023-03-20T16:24:37;11.70;99.90
9640;DHT22;51745;50.872;4.732;2023-03-20T16:27:26;13.30;99.90
9640;DHT22;51745;50.872;4.732;2023-03-20T16:30:16;11.70;99.90
9640;DHT22;51745;50.872;4.732;2023-03-20T16:33:04;11.40;99.90
9640;DHT22;51745;50.872;4.732;2023-03-20T16:35:53;11.20;99.90
9640;DHT22;51745;50.872;4.732;2023-03-20T16:38:42;11.20;99.90
9640;DHT22;51745;50.872;4.732;2023-03-20T16:41:39;11.10;99.90
9640;DHT22;51745;50.872;4.732;2023-03-20T16:44:28;13.10;99.90
9640;DHT22;51745;50.872;4.732;2023-03-20T16:47:16;11.30;99.90
9640;DHT22;51745;50.872;4.732;2023-03-20T16:50:14;11.20;99.90
9640;DHT22;51745;50.872;4.732;2023-03-20T16:53:04;11.40;99.90
9640;DHT22;51745;50.872;4.732;2023-03-20T16:55:57;11.40;99.90
9640;DHT22;51745;50.872;4.732;2023-03-20T16:58:44;11.40;99.90
9640;DHT22;51745;50.872;4.732;2023-03-20T17:01:32;11.40;99.90
9640;DHT22;51745;50.872;4.732;2023-03-20T17:04:22;11.40;99.90
9640;DHT22;51745;50.872;4.732;2023-03-20T17:07:12;11.40;99.90
9640;DHT22;51745;50.872;4.732;2023-03-20T17:10:09;11.30;99.90
9640;DHT22;51745;50.872;4.732;2023-03-20T17:13:00;11.40;99.90
9640;DHT22;51745;50.872;4.732;2023-03-20T17:15:47;11.30;99.90
9640;DHT22;51745;50.872;4.732;2023-03-20T17:18:36;11.30;99.90
9640;DHT22;51745;50.872;4.732;2023-03-20T17:21:24;11.30;99.90
9640;DHT22;51745;50.872;4.732;2023-03-20T17:24:18;11.20;99.90
9640;DHT22;51745;50.872;4.732;2023-03-20T17:27:07;11.20;99.90
9640;DHT22;51745;50.872;4.732;2023-03-20T17:29:58;11.20;99.90
9640;DHT22;51745;50.872;4.732;2023-03-20T17:32:46;10.20;99.90
9640;DHT22;51745;50.872;4.732;2023-03-20T17:35:34;11.20;99.90
9640;DHT22;51745;50.872;4.732;2023-03-20T17:38:22;11.10;99.90
9640;DHT22;51745;50.872;4.732;2023-03-20T17:41:09;11.80;99.90
9640;DHT22;51745;50.872;4.732;2023-03-20T17:44:06;10.20;99.90
9640;DHT22;51745;50.872;4.732;2023-03-20T17:46:55;11.00;99.90
9640;DHT22;51745;50.872;4.732;2023-03-20T17:49:45;8.60;99.90
9640;DHT22;51745;50.872;4.732;2023-03-20T17:52:33;11.10;99.90
9640;DHT22;51745;50.872;4.732;2023-03-20T17:55:21;11.10;99.90
9640;DHT22;51745;50.872;4.732;2023-03-20T17:58:14;11.20;99.90
9640;DHT22;51745;50.872;4.732;2023-03-20T18:01:03;11.10;99.90
9640;DHT22;51745;50.872;4.732;2023-03-20T18:03:53;11.10;99.90
9640;DHT22;51745;50.872;4.732;2023-03-20T18:06:41;11.10;99.90
9640;DHT22;51745;50.872;4.732;2023-03-20T18:09:28;10.80;99.90
9640;DHT22;51745;50.872;4.732;2023-03-20T18:12:17;11.00;99.90
9640;DHT22;51745;50.872;4.732;2023-03-20T18:15:12;10.20;99.90
9640;DHT22;51745;50.872;4.732;2023-03-20T18:18:00;11.00;99.90
9640;DHT22;51745;50.872;4.732;2023-03-20T18:20:56;11.00;99.90
9640;DHT22;51745;50.872;4.732;2023-03-20T18:23:44;11.00;99.90
9640;DHT22;51745;50.872;4.732;2023-03-20T18:26:32;11.00;99.90
9640;DHT22;51745;50.872;4.732;2023-03-20T18:29:21;10.90;99.90
9640;DHT22;51745;50.872;4.732;2023-03-20T18:32:08;10.90;99.90
9640;DHT22;51745;50.872;4.732;2023-03-20T18:34:56;11.00;99.90
9640;DHT22;51745;50.872;4.732;2023-03-20T18:37:45;10.90;99.90
9640;DHT22;51745;50.872;4.732;2023-03-20T18:40:34;10.90;99.90
9640;DHT22;51745;50.872;4.732;2023-03-20T18:43:23;10.10;99.90
9640;DHT22;51745;50.872;4.732;2023-03-20T18:46:13;10.80;99.90
9640;DHT22;51745;50.872;4.732;2023-03-20T18:49:02;10.50;99.90
9640;DHT22;51745;50.872;4.732;2023-03-20T18:51:50;12.20;99.90
9640;DHT22;51745;50.872;4.732;2023-03-20T18:54:41;10.60;99.90
9640;DHT22;51745;50.872;4.732;2023-03-20T18:57:29;10.50;99.90
9640;DHT22;51745;50.872;4.732;2023-03-20T19:00:18;9.50;99.90
9640;DHT22;51745;50.872;4.732;2023-03-20T19:03:10;10.90;99.90
9640;DHT22;51745;50.872;4.732;2023-03-20T19:06:19;10.70;99.90
9640;DHT22;51745;50.872;4.732;2023-03-20T19:09:28;10.80;99.90
9640;DHT22;51745;50.872;4.732;2023-03-20T19:12:26;11.10;99.90
9640;DHT22;51745;50.872;4.732;2023-03-20T19:15:20;10.70;99.90
9640;DHT22;51745;50.872;4.732;2023-03-20T19:18:16;11.30;99.90